createdAt,value
2023-03-05T00:01:27.001Z,100995.94
2023-03-05T00:03:56.423Z,100983.56
2023-03-05T00:06:25.655Z,100984.75
2023-03-05T00:08:56.772Z,100988.13
2023-03-05T00:11:25.653Z,100980.22
2023-03-05T00:13:53.636Z,100985.59
2023-03-05T00:16:22.375Z,100986.34
2023-03-05T00:18:50.520Z,100986.09
2023-03-05T00:21:20.997Z,100988.38
2023-03-05T00:23:50.686Z,100992.56
2023-03-05T00:26:20.772Z,100991.97
2023-03-05T00:28:49.997Z,100983.56
2023-03-05T00:31:17.946Z,100994.88
2023-03-05T00:33:45.686Z,100986.69
2023-03-05T00:36:13.365Z,100981.41
2023-03-05T00:38:41.008Z,100985.03
2023-03-05T00:41:09.642Z,100979.75
2023-03-05T00:43:38.686Z,100972.63
2023-03-05T00:46:06.504Z,100970.25
2023-03-05T00:48:34.304Z,100970.97
2023-03-05T00:51:02.019Z,100970.25
2023-03-05T00:53:29.842Z,100969.41
2023-03-05T00:55:57.486Z,100968.56
2023-03-05T00:58:25.220Z,100959.91
2023-03-05T01:00:54.223Z,100962.66
2023-03-05T01:03:21.886Z,100956.41
2023-03-05T01:05:49.519Z,100954.50
2023-03-05T01:08:17.660Z,100959.56
2023-03-05T01:10:45.361Z,100960.25
2023-03-05T01:13:13.366Z,100946.34
2023-03-05T01:15:41.190Z,100953.31
2023-03-05T01:18:10.217Z,100945.63
2023-03-05T01:20:37.825Z,100942.84
2023-03-05T01:23:05.533Z,100937.47
2023-03-05T01:25:33.337Z,100939.09
2023-03-05T01:28:01.371Z,100939.09
2023-03-05T01:30:29.445Z,100932.41
2023-03-05T01:32:57.519Z,100934.31
2023-03-05T01:35:27.591Z,100929.28
2023-03-05T01:37:55.726Z,100922.91
2023-03-05T01:40:27.091Z,100927.34
2023-03-05T01:42:59.567Z,100924.81
2023-03-05T01:45:27.756Z,100921.34
2023-03-05T01:47:55.398Z,100916.78
2023-03-05T01:50:27.979Z,100923.75
2023-03-05T01:53:00.144Z,100929.03
2023-03-05T01:55:30.437Z,100921.34
2023-03-05T01:58:05.111Z,100924.25
2023-03-05T02:00:38.646Z,100915.38
2023-03-05T02:03:08.537Z,100920.78
2023-03-05T02:05:39.578Z,100913.69
2023-03-05T02:08:09.203Z,100904.16
2023-03-05T02:10:40.181Z,100906.19
2023-03-05T02:13:10.549Z,100902.47
2023-03-05T02:15:39.570Z,100902.84
2023-03-05T02:18:08.200Z,100902.75
2023-03-05T02:20:47.324Z,100904.41
2023-03-05T02:23:17.635Z,100906.34
2023-03-05T02:25:45.620Z,100896.63
2023-03-05T02:28:19.578Z,100903.31
2023-03-05T02:30:47.428Z,100899.94
2023-03-05T02:33:15.827Z,100898.25
2023-03-05T02:35:44.593Z,100897.69
2023-03-05T02:38:12.720Z,100892.19
2023-03-05T02:40:41.788Z,100889.53
2023-03-05T02:43:10.268Z,100881.94
2023-03-05T02:45:38.453Z,100891.56
2023-03-05T02:48:06.590Z,100883.19
2023-03-05T02:50:35.372Z,100884.00
2023-03-05T02:53:03.417Z,100885.56
2023-03-05T02:55:31.095Z,100883.75
2023-03-05T02:58:00.187Z,100881.00
2023-03-05T03:00:28.064Z,100874.03
2023-03-05T03:02:55.937Z,100873.78
2023-03-05T03:05:23.723Z,100866.31
2023-03-05T03:07:52.337Z,100856.00
2023-03-05T03:10:20.015Z,100855.28
2023-03-05T03:12:47.700Z,100850.84
2023-03-05T03:15:18.620Z,100852.78
2023-03-05T03:17:46.652Z,100843.38
2023-03-05T03:20:16.646Z,100847.50
2023-03-05T03:22:46.039Z,100842.47
2023-03-05T03:25:15.574Z,100846.78
2023-03-05T03:27:43.345Z,100840.75
2023-03-05T03:30:12.764Z,100833.69
2023-03-05T03:32:41.776Z,100828.50
2023-03-05T03:35:10.683Z,100831.97
2023-03-05T03:37:38.668Z,100827.66
2023-03-05T03:40:08.028Z,100829.84
2023-03-05T03:42:35.796Z,100818.44
2023-03-05T03:45:03.638Z,100825.75
2023-03-05T03:47:31.476Z,100823.38
2023-03-05T03:50:00.565Z,100821.69
2023-03-05T03:52:28.174Z,100826.25
2023-03-05T03:55:01.398Z,100820.25
2023-03-05T03:57:30.747Z,100821.81
2023-03-05T03:59:58.374Z,100814.97
2023-03-05T04:02:26.414Z,100816.88
2023-03-05T04:04:54.325Z,100817.50
2023-03-05T04:07:23.487Z,100817.38
2023-03-05T04:09:51.197Z,100813.06
2023-03-05T04:12:18.997Z,100807.66
2023-03-05T04:14:47.012Z,100813.16
2023-03-05T04:17:15.907Z,100812.22
2023-03-05T04:19:44.405Z,100804.66
2023-03-05T04:22:13.233Z,100810.66
2023-03-05T04:24:42.558Z,100803.94
2023-03-05T04:27:10.402Z,100796.25
2023-03-05T04:29:38.363Z,100797.94
2023-03-05T04:32:06.732Z,100804.19
2023-03-05T04:34:35.213Z,100802.38
2023-03-05T04:37:02.955Z,100802.63
2023-03-05T04:39:30.904Z,100808.75
2023-03-05T04:41:59.920Z,100801.78
2023-03-05T04:44:27.609Z,100808.53
2023-03-05T04:46:55.315Z,100815.50
2023-03-05T04:49:22.956Z,100813.69
2023-03-05T04:51:50.626Z,100800.38
2023-03-05T04:54:18.414Z,100797.97
2023-03-05T04:56:46.201Z,100798.69
2023-03-05T04:59:15.185Z,100797.97
2023-03-05T05:01:43.091Z,100792.00
2023-03-05T05:04:10.835Z,100793.63
2023-03-05T05:06:38.532Z,100793.41
2023-03-05T05:09:06.374Z,100792.56
2023-03-05T05:11:34.066Z,100793.41
2023-03-05T05:14:01.829Z,100790.75
2023-03-05T05:16:31.211Z,100797.97
2023-03-05T05:19:00.059Z,100791.72
2023-03-05T05:21:27.758Z,100796.28
2023-03-05T05:23:55.411Z,100786.81
2023-03-05T05:26:23.141Z,100792.94
2023-03-05T05:28:50.713Z,100793.91
2023-03-05T05:31:19.675Z,100791.00
2023-03-05T05:33:49.910Z,100788.34
2023-03-05T05:36:20.076Z,100793.63
2023-03-05T05:38:47.753Z,100791.72
2023-03-05T05:41:18.908Z,100785.72
2023-03-05T05:43:46.936Z,100784.19
2023-03-05T05:46:16.441Z,100786.09
2023-03-05T05:48:45.325Z,100783.59
2023-03-05T05:51:17.254Z,100781.06
2023-03-05T05:53:45.417Z,100777.34
2023-03-05T05:56:14.708Z,100769.53
2023-03-05T05:58:43.832Z,100774.09
2023-03-05T06:01:16.643Z,100771.72
2023-03-05T06:03:44.281Z,100762.97
2023-03-05T06:06:15.177Z,100764.50
2023-03-05T06:08:42.925Z,100766.06
2023-03-05T06:11:10.745Z,100767.00
2023-03-05T06:13:38.428Z,100770.50
2023-03-05T06:16:08.409Z,100772.28
2023-03-05T06:18:36.734Z,100771.34
2023-03-05T06:21:06.649Z,100773.25
2023-03-05T06:23:36.023Z,100771.59
2023-03-05T06:26:06.800Z,100766.91
2023-03-05T06:28:34.729Z,100776.63
2023-03-05T06:31:04.173Z,100766.31
2023-03-05T06:33:32.588Z,100770.88
2023-03-05T06:36:00.356Z,100771.59
2023-03-05T06:38:28.119Z,100781.06
2023-03-05T06:41:01.258Z,100776.63
2023-03-05T06:43:28.872Z,100771.94
2023-03-05T06:46:03.323Z,100775.53
2023-03-05T06:48:31.031Z,100767.97
2023-03-05T06:50:58.705Z,100777.69
2023-03-05T06:53:27.220Z,100791.03
2023-03-05T06:55:54.999Z,100779.63
2023-03-05T06:58:24.743Z,100778.53
2023-03-05T07:00:52.476Z,100785.50
2023-03-05T07:03:20.170Z,100782.00
2023-03-05T07:05:50.754Z,100776.38
2023-03-05T07:08:18.754Z,100779.75
2023-03-05T07:10:46.590Z,100771.44
2023-03-05T07:13:14.201Z,100772.16
2023-03-05T07:15:44.903Z,100768.69
2023-03-05T07:18:12.526Z,100761.59
2023-03-05T07:20:40.178Z,100767.34
2023-03-05T07:23:07.984Z,100767.44
2023-03-05T07:25:37.141Z,100772.22
2023-03-05T07:28:06.399Z,100766.69
2023-03-05T07:30:34.677Z,100771.84
2023-03-05T07:33:03.697Z,100763.53
2023-03-05T07:35:31.393Z,100753.66
2023-03-05T07:37:59.169Z,100757.91
2023-03-05T07:40:26.817Z,100756.56
2023-03-05T07:42:54.643Z,100758.75
2023-03-05T07:45:22.338Z,100756.81
2023-03-05T07:47:52.453Z,100758.22
2023-03-05T07:50:21.543Z,100754.38
2023-03-05T07:52:49.238Z,100766.13
2023-03-05T07:55:16.929Z,100763.22
2023-03-05T07:57:44.575Z,100768.13
2023-03-05T08:00:13.688Z,100765.91
2023-03-05T08:02:41.447Z,100764.09
2023-03-05T08:05:09.471Z,100760.97
2023-03-05T08:07:38.462Z,100755.69
2023-03-05T08:10:07.305Z,100758.75
2023-03-05T08:12:35.265Z,100754.91
2023-03-05T08:15:02.912Z,100756.31
2023-03-05T08:17:30.582Z,100760.25
2023-03-05T08:20:00.131Z,100754.69
2023-03-05T08:22:27.884Z,100753.59
2023-03-05T08:24:56.863Z,100744.44
2023-03-05T08:27:24.579Z,100751.38
2023-03-05T08:29:52.311Z,100743.91
2023-03-05T08:32:20.501Z,100748.25
2023-03-05T08:34:48.230Z,100746.16
2023-03-05T08:37:15.929Z,100741.69
2023-03-05T08:39:43.613Z,100738.81
2023-03-05T08:42:12.587Z,100749.56
2023-03-05T08:44:40.299Z,100743.59
2023-03-05T08:47:08.306Z,100742.81
2023-03-05T08:49:36.003Z,100738.50
2023-03-05T08:52:03.685Z,100742.72
2023-03-05T08:54:31.379Z,100748.84
2023-03-05T08:56:59.092Z,100742.59
2023-03-05T08:59:28.112Z,100735.88
2023-03-05T09:01:55.936Z,100736.00
2023-03-05T09:04:23.739Z,100732.66
2023-03-05T09:06:51.742Z,100730.19
2023-03-05T09:09:21.259Z,100725.47
2023-03-05T09:11:48.844Z,100726.31
2023-03-05T09:14:16.500Z,100724.63
2023-03-05T09:16:45.895Z,100719.19
2023-03-05T09:19:15.126Z,100720.69
2023-03-05T09:21:43.134Z,100725.69
2023-03-05T09:24:11.775Z,100716.75
2023-03-05T09:26:40.971Z,100717.25
2023-03-05T09:29:09.102Z,100710.84
2023-03-05T09:31:37.220Z,100703.63
2023-03-05T09:34:08.170Z,100702.91
2023-03-05T09:36:36.010Z,100696.03
2023-03-05T09:39:06.582Z,100703.66
2023-03-05T09:41:52.182Z,100709.25
2023-03-05T09:44:31.732Z,100699.91
2023-03-05T09:47:14.816Z,100698.53
2023-03-05T09:49:53.210Z,100697.88
2023-03-05T09:52:25.011Z,100699.59
2023-03-05T09:54:56.565Z,100692.47
2023-03-05T09:57:30.090Z,100684.00
2023-03-05T10:00:00.972Z,100685.84
2023-03-05T10:02:32.754Z,100685.03
2023-03-05T10:05:13.950Z,100681.16
2023-03-05T10:07:44.561Z,100674.16
2023-03-05T10:10:16.663Z,100673.91
2023-03-05T10:12:46.515Z,100676.25
2023-03-05T10:15:17.355Z,100671.09
2023-03-05T10:18:02.391Z,100661.34
2023-03-05T10:20:54.994Z,100658.84
2023-03-05T10:23:30.045Z,100663.59
2023-03-05T10:26:09.804Z,100662.34
2023-03-05T10:28:49.843Z,100662.06
2023-03-05T10:31:41.987Z,100650.50
2023-03-05T10:34:34.961Z,100648.97
2023-03-05T10:37:28.432Z,100647.47
2023-03-05T10:40:09.847Z,100642.28
2023-03-05T10:42:44.726Z,100641.31
2023-03-05T10:45:16.816Z,100633.50
2023-03-05T10:47:49.492Z,100633.78
2023-03-05T10:50:20.935Z,100627.91
2023-03-05T10:52:57.894Z,100631.28
2023-03-05T10:55:25.637Z,100632.13
2023-03-05T10:57:53.410Z,100631.97
2023-03-05T11:00:23.478Z,100620.69
2023-03-05T11:02:59.218Z,100623.31
2023-03-05T11:05:48.983Z,100620.94
2023-03-05T11:08:30.948Z,100613.59
2023-03-05T11:11:14.668Z,100610.78
2023-03-05T11:13:53.662Z,100611.19
2023-03-05T11:16:23.833Z,100609.50
2023-03-05T11:18:51.960Z,100607.28
2023-03-05T11:21:23.944Z,100604.91
2023-03-05T11:24:14.770Z,100597.69
2023-03-05T11:26:51.090Z,100609.50
2023-03-05T11:29:22.506Z,100600.91
2023-03-05T11:31:51.025Z,100598.66
2023-03-05T11:34:39.824Z,100594.75
2023-03-05T11:37:08.049Z,100589.59
2023-03-05T11:39:40.187Z,100590.31
2023-03-05T11:42:12.788Z,100594.19
2023-03-05T11:44:47.900Z,100593.66
2023-03-05T11:47:24.122Z,100591.69
2023-03-05T11:49:55.975Z,100595.59
2023-03-05T11:52:27.898Z,100586.13
2023-03-05T11:55:03.493Z,100580.94
2023-03-05T11:57:41.770Z,100581.13
2023-03-05T12:00:16.278Z,100573.97
2023-03-05T12:02:44.258Z,100576.22
2023-03-05T12:05:15.973Z,100570.53
2023-03-05T12:07:48.374Z,100572.88
2023-03-05T12:10:19.686Z,100561.31
2023-03-05T12:12:54.336Z,100559.22
2023-03-05T12:15:34.935Z,100558.66
2023-03-05T12:18:11.197Z,100556.44
2023-03-05T12:20:47.457Z,100552.25
2023-03-05T12:23:19.415Z,100550.16
2023-03-05T12:25:51.148Z,100540.00
2023-03-05T12:28:56.183Z,100546.97
2023-03-05T12:31:35.433Z,100539.03
2023-03-05T12:34:36.808Z,100531.06
2023-03-05T12:37:05.211Z,100537.47
2023-03-05T12:39:52.627Z,100534.00
2023-03-05T12:42:48.235Z,100527.03
2023-03-05T12:45:38.253Z,100526.50
2023-03-05T12:48:50.630Z,100526.47
2023-03-05T12:51:40.609Z,100513.25
2023-03-05T12:54:30.466Z,100516.16
2023-03-05T12:57:00.292Z,100513.97
2023-03-05T12:59:41.644Z,100512.16
2023-03-05T13:02:29.875Z,100509.22
2023-03-05T13:05:03.667Z,100497.91
2023-03-05T13:07:31.426Z,100506.41
2023-03-05T13:10:00.657Z,100499.59
2023-03-05T13:12:30.993Z,100493.44
2023-03-05T13:15:03.684Z,100487.19
2023-03-05T13:17:39.218Z,100490.41
2023-03-05T13:20:27.034Z,100477.56
2023-03-05T13:23:15.046Z,100481.31
2023-03-05T13:25:44.369Z,100478.41
2023-03-05T13:28:13.754Z,100479.38
2023-03-05T13:30:46.804Z,100470.72
2023-03-05T13:33:18.941Z,100472.41
2023-03-05T13:35:47.694Z,100469.09
2023-03-05T13:38:25.517Z,100466.31
2023-03-05T13:41:04.189Z,100462.00
2023-03-05T13:43:32.419Z,100462.41
2023-03-05T13:46:07.715Z,100453.50
2023-03-05T13:48:35.545Z,100457.28
2023-03-05T13:51:06.818Z,100451.28
2023-03-05T13:53:35.450Z,100457.41
2023-03-05T13:56:06.509Z,100454.06
2023-03-05T13:58:48.810Z,100454.34
2023-03-05T14:01:25.285Z,100447.81
2023-03-05T14:03:56.113Z,100446.69
2023-03-05T14:06:27.693Z,100441.81
2023-03-05T14:09:03.658Z,100440.13
2023-03-05T14:11:31.499Z,100427.88
2023-03-05T14:14:06.481Z,100425.38
2023-03-05T14:16:35.743Z,100408.81
2023-03-05T14:19:07.242Z,100407.00
2023-03-05T14:21:47.059Z,100406.72
2023-03-05T14:24:22.172Z,100407.41
2023-03-05T14:26:52.694Z,100404.78
2023-03-05T14:29:23.667Z,100399.09
2023-03-05T14:31:55.598Z,100397.53
2023-03-05T14:34:28.319Z,100390.03
2023-03-05T14:36:58.986Z,100384.88
2023-03-05T14:39:41.671Z,100390.31
2023-03-05T14:42:27.036Z,100381.09
2023-03-05T14:44:55.703Z,100376.63
2023-03-05T14:47:25.330Z,100378.31
2023-03-05T14:49:53.036Z,100360.50
2023-03-05T14:52:23.056Z,100353.41
2023-03-05T14:54:50.946Z,100347.38
2023-03-05T14:57:21.493Z,100341.75
2023-03-05T14:59:49.209Z,100342.28
2023-03-05T15:02:19.016Z,100337.38
2023-03-05T15:04:48.339Z,100332.50
2023-03-05T15:07:19.765Z,100329.31
2023-03-05T15:09:47.424Z,100324.47
2023-03-05T15:12:16.776Z,100334.75
2023-03-05T15:14:44.658Z,100319.44
2023-03-05T15:17:19.187Z,100329.34
2023-03-05T15:19:48.594Z,100322.38
2023-03-05T15:22:16.970Z,100315.38
2023-03-05T15:24:45.641Z,100312.44
2023-03-05T15:27:14.568Z,100313.00
2023-03-05T15:29:42.618Z,100313.56
2023-03-05T15:32:10.422Z,100305.34
2023-03-05T15:34:38.231Z,100300.63
2023-03-05T15:37:07.470Z,100297.84
2023-03-05T15:39:35.151Z,100291.16
2023-03-05T15:42:04.453Z,100282.22
2023-03-05T15:44:33.017Z,100283.38
2023-03-05T15:47:00.865Z,100277.56
2023-03-05T15:49:28.857Z,100277.69
2023-03-05T15:51:57.009Z,100265.34
2023-03-05T15:54:26.291Z,100268.16
2023-03-05T15:56:54.054Z,100269.53
2023-03-05T15:59:22.018Z,100265.09
2023-03-05T16:01:52.081Z,100263.41
2023-03-05T16:04:20.154Z,100257.03
2023-03-05T16:06:50.467Z,100246.41
2023-03-05T16:09:20.583Z,100248.66
2023-03-05T16:11:51.519Z,100248.94
2023-03-05T16:14:28.165Z,100246.72
2023-03-05T16:16:58.993Z,100241.97
2023-03-05T16:19:27.901Z,100228.63
2023-03-05T16:21:58.345Z,100229.59
2023-03-05T16:24:26.009Z,100230.88
2023-03-05T16:26:55.334Z,100229.75
2023-03-05T16:29:23.124Z,100233.38
2023-03-05T16:31:50.827Z,100232.66
2023-03-05T16:34:18.835Z,100230.03
2023-03-05T16:36:50.233Z,100228.63
2023-03-05T16:39:18.028Z,100233.91
2023-03-05T16:41:45.820Z,100232.66
2023-03-05T16:44:14.921Z,100229.50
2023-03-05T16:46:43.936Z,100240.91
2023-03-05T16:49:12.326Z,100231.16
2023-03-05T16:51:40.117Z,100231.44
2023-03-05T16:54:10.073Z,100226.41
2023-03-05T16:56:37.989Z,100223.38
2023-03-05T16:59:05.859Z,100218.34
2023-03-05T17:01:37.061Z,100221.13
2023-03-05T17:04:04.907Z,100217.25
2023-03-05T17:06:34.759Z,100219.44
2023-03-05T17:09:02.815Z,100220.28
2023-03-05T17:11:30.538Z,100220.03
2023-03-05T17:13:58.411Z,100221.97
2023-03-05T17:16:26.179Z,100217.81
2023-03-05T17:18:55.222Z,100215.00
2023-03-05T17:21:22.892Z,100217.13
2023-03-05T17:23:50.667Z,100211.13
2023-03-05T17:26:20.798Z,100214.63
2023-03-05T17:28:48.560Z,100213.38
2023-03-05T17:31:16.619Z,100206.81
2023-03-05T17:33:44.443Z,100207.06
2023-03-05T17:36:18.409Z,100213.19
2023-03-05T17:38:47.589Z,100204.88
2023-03-05T17:41:16.309Z,100203.34
2023-03-05T17:43:44.097Z,100211.84
2023-03-05T17:46:12.393Z,100197.53
2023-03-05T17:48:40.165Z,100202.94
2023-03-05T17:51:08.747Z,100205.28
2023-03-05T17:53:39.408Z,100204.31
2023-03-05T17:56:09.272Z,100207.91
2023-03-05T17:58:37.354Z,100204.44
2023-03-05T18:01:06.525Z,100200.44
2023-03-05T18:03:34.523Z,100200.00
2023-03-05T18:06:02.235Z,100195.28
2023-03-05T18:08:29.834Z,100192.63
2023-03-05T18:10:58.930Z,100194.44
2023-03-05T18:13:26.579Z,100188.75
2023-03-05T18:15:54.299Z,100195.00
2023-03-05T18:18:21.960Z,100196.50
2023-03-05T18:20:50.195Z,100184.56
2023-03-05T18:23:17.853Z,100190.25
2023-03-05T18:25:45.716Z,100186.38
2023-03-05T18:28:16.353Z,100188.31
2023-03-05T18:30:46.518Z,100185.00
2023-03-05T18:33:19.794Z,100180.53
2023-03-05T18:35:49.610Z,100180.09
2023-03-05T18:38:17.336Z,100170.78
2023-03-05T18:40:46.514Z,100177.34
2023-03-05T18:43:17.293Z,100172.44
2023-03-05T18:45:46.834Z,100171.75
2023-03-05T18:48:14.588Z,100172.44
2023-03-05T18:50:42.480Z,100168.31
2023-03-05T18:53:13.000Z,100163.28
2023-03-05T18:55:42.101Z,100151.06
2023-03-05T18:58:09.873Z,100157.03
2023-03-05T19:00:40.883Z,100162.47
2023-03-05T19:03:08.958Z,100153.84
2023-03-05T19:05:36.649Z,100152.88
2023-03-05T19:08:04.373Z,100156.91
2023-03-05T19:10:32.827Z,100154.81
2023-03-05T19:13:15.692Z,100142.84
2023-03-05T19:15:44.910Z,100151.31
2023-03-05T19:18:13.111Z,100144.41
2023-03-05T19:20:41.010Z,100145.50
2023-03-05T19:23:08.677Z,100143.00
2023-03-05T19:25:36.691Z,100141.47
2023-03-05T19:28:04.368Z,100140.22
2023-03-05T19:30:32.195Z,100133.41
2023-03-05T19:33:01.361Z,100133.28
2023-03-05T19:35:29.029Z,100135.22
2023-03-05T19:37:56.695Z,100133.28
2023-03-05T19:40:24.431Z,100129.66
2023-03-05T19:42:52.105Z,100122.44
2023-03-05T19:45:20.074Z,100118.53
2023-03-05T19:47:47.712Z,100121.63
2023-03-05T19:50:17.264Z,100127.59
2023-03-05T19:52:45.018Z,100125.50
2023-03-05T19:55:12.823Z,100118.84
2023-03-05T19:57:40.503Z,100127.44
2023-03-05T20:00:09.738Z,100122.97
2023-03-05T20:02:37.446Z,100126.19
2023-03-05T20:05:10.370Z,100125.22
2023-03-05T20:07:39.332Z,100121.88
2023-03-05T20:10:07.788Z,100118.13
2023-03-05T20:12:36.518Z,100118.00
2023-03-05T20:15:04.509Z,100106.72
2023-03-05T20:17:32.173Z,100107.25
2023-03-05T20:20:00.194Z,100106.88
2023-03-05T20:22:27.854Z,100108.22
2023-03-05T20:24:56.929Z,100105.19
2023-03-05T20:27:24.653Z,100096.88
2023-03-05T20:29:52.325Z,100098.00
2023-03-05T20:32:19.945Z,100096.59
2023-03-05T20:34:51.087Z,100098.81
2023-03-05T20:37:18.856Z,100100.75
2023-03-05T20:39:46.512Z,100089.50
2023-03-05T20:42:15.580Z,100098.50
2023-03-05T20:44:43.202Z,100089.91
2023-03-05T20:47:26.112Z,100091.59
2023-03-05T20:49:55.830Z,100079.06
2023-03-05T20:52:23.713Z,100085.47
2023-03-05T20:54:51.471Z,100082.66
2023-03-05T20:57:20.640Z,100086.00
2023-03-05T20:59:48.266Z,100081.69
2023-03-05T21:02:18.253Z,100080.03
2023-03-05T21:04:46.053Z,100080.72
2023-03-05T21:07:13.799Z,100074.06
2023-03-05T21:09:41.609Z,100075.75
2023-03-05T21:12:09.590Z,100071.56
2023-03-05T21:14:40.500Z,100063.78
2023-03-05T21:17:08.902Z,100061.00
2023-03-05T21:19:39.895Z,100067.97
2023-03-05T21:22:07.681Z,100061.44
2023-03-05T21:24:52.094Z,100058.66
2023-03-05T21:27:19.688Z,100057.69
2023-03-05T21:29:48.783Z,100055.50
2023-03-05T21:32:16.645Z,100058.28
2023-03-05T21:34:44.438Z,100047.97
2023-03-05T21:37:12.181Z,100042.88
2023-03-05T21:39:39.882Z,100037.44
2023-03-05T21:42:07.604Z,100036.63
2023-03-05T21:44:35.232Z,100037.28
2023-03-05T21:47:04.554Z,100036.88
2023-03-05T21:49:32.221Z,100032.97
2023-03-05T21:52:09.089Z,100022.44
2023-03-05T21:54:36.970Z,100026.34
2023-03-05T21:57:05.590Z,100024.38
2023-03-05T21:59:33.593Z,100019.25
2023-03-05T22:02:01.606Z,100016.03
2023-03-05T22:04:30.600Z,100020.50
2023-03-05T22:06:58.396Z,100009.78
2023-03-05T22:09:26.038Z,100007.44
2023-03-05T22:11:53.680Z,100007.16
2023-03-05T22:14:21.440Z,99995.25
2023-03-05T22:16:53.112Z,99988.28
2023-03-05T22:19:20.945Z,99990.25
2023-03-05T22:21:50.070Z,99983.56
2023-03-05T22:24:17.694Z,99967.34
2023-03-05T22:26:45.343Z,99969.97
2023-03-05T22:29:13.223Z,99972.19
2023-03-05T22:31:41.503Z,99963.31
2023-03-05T22:34:09.272Z,99967.75
2023-03-05T22:36:37.048Z,99975.38
2023-03-05T22:39:06.147Z,99958.44
2023-03-05T22:41:34.186Z,99958.31
2023-03-05T22:44:01.830Z,99951.91
2023-03-05T22:46:29.533Z,99942.75
2023-03-05T22:48:57.298Z,99942.63
2023-03-05T22:51:25.251Z,99940.69
2023-03-05T22:53:53.011Z,99933.59
2023-03-05T22:56:22.449Z,99933.03
2023-03-05T22:58:50.405Z,99930.53
2023-03-05T23:01:21.775Z,99929.44
2023-03-05T23:03:55.486Z,99917.47
2023-03-05T23:06:23.267Z,99920.81
2023-03-05T23:08:51.287Z,99911.94
2023-03-05T23:11:18.982Z,99917.34
2023-03-05T23:13:48.044Z,99912.66
2023-03-05T23:16:15.756Z,99906.38
2023-03-05T23:18:43.678Z,99905.81
2023-03-05T23:21:11.322Z,99901.06
2023-03-05T23:23:39.056Z,99901.75
2023-03-05T23:26:07.086Z,99896.13
2023-03-05T23:28:34.829Z,99898.34
2023-03-05T23:31:04.296Z,99897.09
2023-03-05T23:33:32.222Z,99891.41
2023-03-05T23:36:01.198Z,99898.47
2023-03-05T23:38:30.893Z,99897.47
2023-03-05T23:41:01.135Z,99898.88
2023-03-05T23:43:29.726Z,99897.22
2023-03-05T23:45:57.837Z,99890.00
2023-03-05T23:48:28.314Z,99886.13
2023-03-05T23:50:56.299Z,99884.19
2023-03-05T23:53:26.519Z,99891.81
2023-03-05T23:55:55.156Z,99885.19
2023-03-05T23:58:22.906Z,99888.06
